Date,TemperatureHighF,TemperatureAvgF,TemperatureLowF,DewpointHighF,DewpointAvgF,DewpointLowF,HumidityHigh,HumidityAvg,HumidityLow,PressureMaxIn,PressureMinIn,WindSpeedMaxMPH,WindSpeedAvgMPH,GustSpeedMaxMPH,PrecipitationSumIn
2013-9-1,79.3,72.0,67.0,73.0,69.3,66.0,97,91,79,29.94,29.88,1,0,5,0.06
2013-9-2,78.4,70.7,63.3,73.0,68.4,62.0,97,92,81,29.90,29.74,5,0,11,1.91
2013-9-3,72.4,65.6,59.9,65.0,61.9,58.0,97,88,70,29.93,29.81,5,0,10,0.01
2013-9-4,75.3,65.5,57.1,62.0,58.8,56.0,96,80,59,30.03,29.94,9,1,12,0.00
2013-9-5,67.1,59.1,47.6,59.0,50.4,43.0,95,75,43,30.28,29.96,8,1,10,0.02
2013-9-6,65.9,53.1,42.8,50.0,45.2,40.0,96,77,47,30.38,30.22,5,0,8,0.00
2013-9-7,69.4,57.3,46.9,60.0,52.6,45.0,95,85,59,30.22,29.96,6,1,10,0.04
2013-9-8,65.5,58.2,45.8,59.0,51.7,43.0,95,80,55,30.23,29.89,6,1,13,0.00
2013-9-9,65.1,53.6,40.7,54.0,47.7,39.0,95,81,57,30.34,30.18,7,1,12,0.00
2013-9-10,72.4,64.6,54.9,70.0,62.5,52.0,96,93,86,30.21,30.08,5,0,9,0.20
2013-9-11,88.2,73.8,64.7,79.0,70.4,64.0,97,90,72,30.16,29.99,6,1,19,0.45
2013-9-12,80.4,70.1,66.5,73.0,68.1,65.0,97,93,76,30.03,29.73,9,1,10,0.73
2013-9-13,66.9,59.7,51.9,66.0,58.3,51.0,97,95,91,29.96,29.70,5,1,13,0.34
2013-9-14,61.3,54.6,49.4,55.0,50.9,48.0,96,87,72,30.21,29.96,2,0,6,0.01
2013-9-15,64.3,54.3,44.0,57.0,50.7,43.0,96,88,72,30.29,30.15,8,1,9,0.00
2013-9-16,58.9,52.3,41.8,56.0,48.7,38.0,96,87,75,30.42,30.14,9,2,14,0.12
2013-9-17,61.5,48.0,36.5,48.0,41.9,35.0,95,81,57,30.58,30.43,4,0,10,0.00
2013-9-18,66.8,52.1,41.7,52.0,46.8,40.0,97,84,55,30.46,30.25,6,0,8,0.00
2013-9-19,73.6,55.8,44.4,58.0,50.7,43.0,97,84,57,30.28,30.15,0,0,0,0.00
2013-9-20,76.5,59.9,46.7,63.0,55.0,46.0,97,85,57,30.20,30.04,0,0,1,0.00
2013-9-21,72.0,63.9,54.2,63.0,58.5,53.0,96,83,62,30.06,29.69,13,2,19,0.22
2013-9-22,63.9,57.0,47.4,62.0,51.6,43.0,95,83,59,30.01,29.68,7,1,11,0.53
2013-9-23,57.7,48.7,41.4,45.0,41.6,39.0,93,77,59,30.18,30.01,6,1,10,0.00
2013-9-24,62.4,48.5,38.9,50.0,43.2,37.0,97,83,60,30.17,29.99,5,0,8,0.00
2013-9-25,67.3,53.1,40.6,55.0,47.8,39.0,100,83,58,30.10,30.00,4,0,7,0.00
2013-9-26,61.3,53.5,45.0,51.0,47.8,43.0,94,81,66,30.26,30.10,6,1,9,0.00
2013-9-27,58.9,50.5,43.1,53.0,47.6,42.0,96,90,78,30.41,30.26,0,0,0,0.00
2013-9-28,71.6,54.0,43.4,58.0,49.9,42.0,97,87,59,30.48,30.36,0,0,0,0.00
2013-9-29,71.7,56.1,45.2,59.0,51.9,44.0,97,87,61,30.35,30.17,0,0,0,0.01
2013-9-30,71.0,55.3,45.7,57.0,50.5,44.0,97,85,54,30.21,30.07,0,0,1,0.00